createdAt,value
2023-02-03T00:00:25.521Z,972.70
2023-02-03T00:00:55.262Z,972.70
2023-02-03T00:01:26.818Z,972.70
2023-02-03T00:01:57.821Z,972.60
2023-02-03T00:02:28.192Z,972.60
2023-02-03T00:02:59.567Z,972.40
2023-02-03T00:03:30.208Z,972.40
2023-02-03T00:04:01.278Z,972.50
2023-02-03T00:04:32.294Z,972.50
2023-02-03T00:05:03.639Z,972.60
2023-02-03T00:05:34.556Z,972.60
2023-02-03T00:06:05.584Z,972.50
2023-02-03T00:06:36.499Z,972.50
2023-02-03T00:07:07.804Z,972.50
2023-02-03T00:07:38.226Z,972.50
2023-02-03T00:08:09.198Z,972.60
2023-02-03T00:08:40.326Z,972.60
2023-02-03T00:09:11.339Z,972.50
2023-02-03T00:09:42.514Z,972.50
2023-02-03T00:10:13.788Z,972.40
2023-02-03T00:10:44.558Z,972.40
2023-02-03T00:11:15.471Z,972.70
2023-02-03T00:11:46.219Z,972.70
2023-02-03T00:12:17.829Z,972.50
2023-02-03T00:12:48.229Z,972.50
2023-02-03T00:13:19.319Z,972.50
2023-02-03T00:13:50.407Z,972.50
2023-02-03T00:14:21.225Z,972.50
2023-02-03T00:14:52.229Z,972.40
2023-02-03T00:15:25.723Z,972.40
2023-02-03T00:15:54.341Z,972.60
2023-02-03T00:16:25.322Z,972.60
2023-02-03T00:16:56.239Z,972.40
2023-02-03T00:17:28.118Z,972.40
2023-02-03T00:17:58.256Z,972.50
2023-02-03T00:18:29.280Z,972.50
2023-02-03T00:19:00.510Z,972.50
2023-02-03T00:19:32.813Z,972.50
2023-02-03T00:20:02.593Z,972.70
2023-02-03T00:20:34.725Z,972.70
2023-02-03T00:21:04.633Z,972.81
2023-02-03T00:21:35.622Z,972.81
2023-02-03T00:22:06.707Z,972.60
2023-02-03T00:22:37.449Z,972.60
2023-02-03T00:23:08.385Z,972.91
2023-02-03T00:23:39.522Z,972.91
2023-02-03T00:24:10.438Z,972.91
2023-02-03T00:24:41.614Z,972.91
2023-02-03T00:25:13.317Z,972.70
2023-02-03T00:25:43.640Z,972.70
2023-02-03T00:26:14.425Z,972.60
2023-02-03T00:26:45.599Z,972.60
2023-02-03T00:27:16.577Z,972.60
2023-02-03T00:27:47.723Z,972.60
2023-02-03T00:28:18.660Z,972.60
2023-02-03T00:28:49.601Z,972.60
2023-02-03T00:29:20.679Z,972.50
2023-02-03T00:29:51.697Z,972.50
2023-02-03T00:30:23.324Z,972.50
2023-02-03T00:30:53.344Z,972.70
2023-02-03T00:31:24.547Z,972.70
2023-02-03T00:31:55.872Z,972.70
2023-02-03T00:32:26.511Z,972.70
2023-02-03T00:32:57.652Z,972.30
2023-02-03T00:33:28.425Z,972.30
2023-02-03T00:33:59.624Z,972.60
2023-02-03T00:34:30.454Z,972.60
2023-02-03T00:35:01.653Z,972.60
2023-02-03T00:35:32.407Z,972.60
2023-02-03T00:36:03.509Z,972.60
2023-02-03T00:36:34.633Z,972.60
2023-02-03T00:37:06.013Z,972.50
2023-02-03T00:37:37.118Z,972.50
2023-02-03T00:38:08.132Z,972.60
2023-02-03T00:38:38.374Z,972.60
2023-02-03T00:39:09.744Z,972.50
2023-02-03T00:39:40.519Z,972.50
2023-02-03T00:40:11.763Z,972.50
2023-02-03T00:40:42.386Z,972.50
2023-02-03T00:41:13.664Z,972.60
2023-02-03T00:41:44.650Z,972.60
2023-02-03T00:42:16.045Z,972.50
2023-02-03T00:42:46.999Z,972.50
2023-02-03T00:43:17.807Z,972.50
2023-02-03T00:43:48.737Z,972.50
2023-02-03T00:44:19.657Z,972.50
2023-02-03T00:44:50.732Z,972.40
2023-02-03T00:45:22.893Z,972.40
2023-02-03T00:45:52.496Z,972.40
2023-02-03T00:46:23.541Z,972.40
2023-02-03T00:46:54.401Z,972.60
2023-02-03T00:47:25.378Z,972.60
2023-02-03T00:47:56.440Z,972.40
2023-02-03T00:48:27.427Z,972.40
2023-02-03T00:48:58.572Z,972.60
2023-02-03T00:49:29.412Z,972.60
2023-02-03T00:50:01.038Z,972.50
2023-02-03T00:50:31.382Z,972.50
2023-02-03T00:51:03.386Z,972.70
2023-02-03T00:51:33.348Z,972.70
2023-02-03T00:52:04.563Z,972.91
2023-02-03T00:52:35.638Z,972.91
2023-02-03T00:53:06.967Z,972.60
2023-02-03T00:53:37.608Z,972.60
2023-02-03T00:54:08.361Z,972.91
2023-02-03T00:54:39.659Z,972.91
2023-02-03T00:55:11.108Z,972.81
2023-02-03T00:55:41.615Z,972.81
2023-02-03T00:56:12.382Z,972.60
2023-02-03T00:56:43.430Z,972.60
2023-02-03T00:57:14.775Z,972.60
2023-02-03T00:57:45.738Z,972.60
2023-02-03T00:58:16.839Z,972.81
2023-02-03T00:58:47.686Z,972.81
2023-02-03T00:59:18.406Z,972.50
2023-02-03T00:59:49.641Z,972.50
2023-02-03T01:00:22.805Z,972.60
2023-02-03T01:00:51.746Z,972.70
2023-02-03T01:01:22.701Z,972.70
2023-02-03T01:01:53.699Z,972.50
2023-02-03T01:02:24.510Z,972.50
2023-02-03T01:02:55.904Z,972.81
2023-02-03T01:03:27.545Z,972.81
2023-02-03T01:03:57.616Z,972.70
2023-02-03T01:04:28.819Z,972.70
2023-02-03T01:04:59.725Z,973.01
2023-02-03T01:05:30.852Z,973.01
2023-02-03T01:06:01.617Z,972.81
2023-02-03T01:06:32.642Z,972.81
2023-02-03T01:07:03.728Z,973.01
2023-02-03T01:07:34.656Z,973.01
2023-02-03T01:08:05.926Z,972.81
2023-02-03T01:08:36.467Z,972.81
2023-02-03T01:09:07.574Z,973.11
2023-02-03T01:09:38.620Z,973.11
2023-02-03T01:10:10.859Z,973.11
2023-02-03T01:10:40.856Z,973.11
2023-02-03T01:11:11.653Z,972.91
2023-02-03T01:11:42.608Z,972.91
2023-02-03T01:12:13.460Z,973.11
2023-02-03T01:12:44.614Z,973.11
2023-02-03T01:13:16.379Z,972.70
2023-02-03T01:13:46.840Z,972.70
2023-02-03T01:14:17.546Z,973.01
2023-02-03T01:14:48.839Z,973.01
2023-02-03T01:15:20.646Z,972.70
2023-02-03T01:15:50.576Z,972.91
2023-02-03T01:16:21.583Z,972.91
2023-02-03T01:16:52.690Z,972.91
2023-02-03T01:17:23.469Z,972.91
2023-02-03T01:17:54.467Z,972.70
2023-02-03T01:18:25.864Z,972.70
2023-02-03T01:18:56.605Z,972.81
2023-02-03T01:19:27.635Z,972.81
2023-02-03T01:19:58.557Z,973.01
2023-02-03T01:20:30.215Z,973.01
2023-02-03T01:21:00.679Z,972.81
2023-02-03T01:21:31.608Z,972.81
2023-02-03T01:22:02.643Z,972.70
2023-02-03T01:22:34.295Z,972.70
2023-02-03T01:23:04.640Z,972.81
2023-02-03T01:23:37.603Z,972.81
2023-02-03T01:24:06.645Z,972.91
2023-02-03T01:24:42.068Z,972.91
2023-02-03T01:25:09.000Z,972.91
2023-02-03T01:25:39.671Z,972.91
2023-02-03T01:26:10.404Z,972.91
2023-02-03T01:26:41.627Z,972.91
2023-02-03T01:27:12.719Z,972.81
2023-02-03T01:27:43.749Z,972.81
2023-02-03T01:28:14.729Z,972.91
2023-02-03T01:28:45.697Z,972.91
2023-02-03T01:29:16.655Z,972.70
2023-02-03T01:29:47.605Z,972.70
2023-02-03T01:30:19.642Z,972.60
2023-02-03T01:30:49.979Z,972.60
2023-02-03T01:31:20.755Z,972.81
2023-02-03T01:31:51.968Z,972.91
2023-02-03T01:32:22.971Z,972.91
2023-02-03T01:32:53.623Z,972.81
2023-02-03T01:33:24.696Z,972.81
2023-02-03T01:33:55.680Z,972.81
2023-02-03T01:34:26.649Z,972.81
2023-02-03T01:34:57.742Z,972.81
2023-02-03T01:35:29.466Z,972.81
2023-02-03T01:35:59.960Z,973.01
2023-02-03T01:36:30.710Z,973.01
2023-02-03T01:37:01.655Z,972.91
2023-02-03T01:37:32.730Z,972.91
2023-02-03T01:38:03.769Z,972.70
2023-02-03T01:38:34.659Z,972.70
2023-02-03T01:39:05.773Z,972.60
2023-02-03T01:39:36.508Z,972.60
2023-02-03T01:40:07.989Z,972.60
2023-02-03T01:40:38.735Z,972.60
2023-02-03T01:41:10.185Z,972.50
2023-02-03T01:41:40.773Z,972.50
2023-02-03T01:42:11.748Z,972.50
2023-02-03T01:42:42.728Z,972.50
2023-02-03T01:43:13.776Z,972.50
2023-02-03T01:43:44.727Z,972.50
2023-02-03T01:44:15.726Z,972.30
2023-02-03T01:44:46.781Z,972.30
2023-02-03T01:45:18.481Z,972.20
2023-02-03T01:45:48.858Z,972.20
2023-02-03T01:46:19.898Z,972.20
2023-02-03T01:46:50.765Z,972.20
2023-02-03T01:47:21.620Z,972.20
2023-02-03T01:47:53.394Z,972.50
2023-02-03T01:48:23.934Z,972.50
2023-02-03T01:48:54.691Z,972.20
2023-02-03T01:49:25.604Z,972.20
2023-02-03T01:49:56.752Z,972.30
2023-02-03T01:50:28.501Z,972.30
2023-02-03T01:50:58.811Z,972.40
2023-02-03T01:51:29.954Z,972.40
2023-02-03T01:52:00.850Z,972.50
2023-02-03T01:52:31.851Z,972.50
2023-02-03T01:53:02.944Z,972.40
2023-02-03T01:53:33.665Z,972.40
2023-02-03T01:54:05.721Z,972.20
2023-02-03T01:54:35.916Z,972.20
2023-02-03T01:55:07.826Z,972.50
2023-02-03T01:55:37.611Z,972.50
2023-02-03T01:56:08.975Z,972.50
2023-02-03T01:56:39.770Z,972.50
2023-02-03T01:57:10.612Z,972.60
2023-02-03T01:57:41.810Z,972.60
2023-02-03T01:58:13.012Z,972.60
2023-02-03T01:58:43.586Z,972.60
2023-02-03T01:59:14.973Z,972.81
2023-02-03T01:59:46.003Z,972.81
2023-02-03T02:00:18.196Z,972.50
2023-02-03T02:00:48.054Z,972.50
2023-02-03T02:01:19.734Z,972.50
2023-02-03T02:01:49.731Z,972.50
2023-02-03T02:02:20.781Z,972.70
2023-02-03T02:02:51.751Z,972.60
2023-02-03T02:03:23.274Z,972.60
2023-02-03T02:03:53.949Z,972.70
2023-02-03T02:04:24.937Z,972.70
2023-02-03T02:04:55.622Z,972.60
2023-02-03T02:05:27.291Z,972.60
2023-02-03T02:05:58.697Z,972.40
2023-02-03T02:06:29.222Z,972.40
2023-02-03T02:06:59.974Z,972.30
2023-02-03T02:07:31.001Z,972.30
2023-02-03T02:08:01.660Z,972.70
2023-02-03T02:08:32.651Z,972.70
2023-02-03T02:09:03.922Z,972.60
2023-02-03T02:09:34.933Z,972.60
2023-02-03T02:10:05.939Z,972.60
2023-02-03T02:10:37.315Z,972.60
2023-02-03T02:11:08.009Z,972.60
2023-02-03T02:11:39.067Z,972.60
2023-02-03T02:12:09.650Z,972.60
2023-02-03T02:12:40.650Z,972.60
2023-02-03T02:13:11.692Z,972.50
2023-02-03T02:13:42.892Z,972.50
2023-02-03T02:14:13.656Z,972.40
2023-02-03T02:14:45.051Z,972.40
2023-02-03T02:15:16.925Z,972.50
2023-02-03T02:15:47.232Z,972.50
2023-02-03T02:16:18.151Z,972.60
2023-02-03T02:16:48.666Z,972.60
2023-02-03T02:17:20.070Z,972.70
2023-02-03T02:17:51.222Z,972.40
2023-02-03T02:18:21.729Z,972.40
2023-02-03T02:18:53.204Z,972.20
2023-02-03T02:19:23.892Z,972.20
2023-02-03T02:19:55.252Z,972.40
2023-02-03T02:20:26.597Z,972.40
2023-02-03T02:20:57.085Z,972.50
2023-02-03T02:21:27.651Z,972.50
2023-02-03T02:21:59.010Z,972.09
2023-02-03T02:22:30.700Z,972.09
2023-02-03T02:23:00.584Z,972.50
2023-02-03T02:23:31.820Z,972.50
2023-02-03T02:24:02.850Z,972.20
2023-02-03T02:24:33.981Z,972.20
2023-02-03T02:25:05.363Z,972.40
2023-02-03T02:25:38.696Z,972.40
2023-02-03T02:26:06.994Z,972.20
2023-02-03T02:26:38.093Z,972.20
2023-02-03T02:27:09.053Z,972.30
2023-02-03T02:27:40.634Z,972.30
2023-02-03T02:28:11.006Z,972.20
2023-02-03T02:28:42.062Z,972.20
2023-02-03T02:29:12.659Z,972.30
2023-02-03T02:29:43.936Z,972.30
2023-02-03T02:30:15.713Z,972.09
2023-02-03T02:30:46.078Z,972.09
2023-02-03T02:31:17.243Z,972.50
2023-02-03T02:31:48.265Z,972.50
2023-02-03T02:32:18.939Z,972.20
2023-02-03T02:32:50.193Z,972.20
2023-02-03T02:33:21.098Z,972.40
2023-02-03T02:33:52.914Z,972.40
2023-02-03T02:34:23.203Z,972.40
2023-02-03T02:34:53.732Z,972.60
2023-02-03T02:35:25.503Z,972.60
2023-02-03T02:35:55.807Z,972.40
2023-02-03T02:36:27.115Z,972.40
2023-02-03T02:36:57.697Z,972.09
2023-02-03T02:37:28.762Z,972.09
2023-02-03T02:38:00.415Z,972.09
2023-02-03T02:38:31.075Z,972.09
2023-02-03T02:39:01.752Z,971.89
2023-02-03T02:39:32.759Z,971.89
2023-02-03T02:40:04.410Z,971.79
2023-02-03T02:40:34.978Z,971.79
2023-02-03T02:41:06.054Z,971.89
2023-02-03T02:41:37.036Z,971.89
2023-02-03T02:42:07.972Z,971.99
2023-02-03T02:42:39.017Z,971.99
2023-02-03T02:43:09.689Z,971.89
2023-02-03T02:43:40.948Z,971.89
2023-02-03T02:44:12.025Z,971.79
2023-02-03T02:44:42.896Z,971.79
2023-02-03T02:45:15.621Z,971.89
2023-02-03T02:45:45.093Z,971.89
2023-02-03T02:46:15.973Z,971.79
2023-02-03T02:46:47.020Z,971.79
2023-02-03T02:47:18.050Z,971.89
2023-02-03T02:47:49.234Z,971.89
2023-02-03T02:48:20.006Z,971.99
2023-02-03T02:48:51.186Z,971.89
2023-02-03T02:49:21.890Z,971.89
2023-02-03T02:49:53.196Z,972.09
2023-02-03T02:50:25.429Z,972.09
2023-02-03T02:50:55.124Z,971.89
2023-02-03T02:51:25.995Z,971.89
2023-02-03T02:51:57.089Z,971.99
2023-02-03T02:52:28.169Z,971.99
2023-02-03T02:52:58.852Z,971.99
2023-02-03T02:53:29.825Z,971.99
2023-02-03T02:54:00.693Z,971.99
2023-02-03T02:54:32.035Z,971.99
2023-02-03T02:55:03.264Z,972.09
2023-02-03T02:55:34.032Z,972.09
2023-02-03T02:56:04.730Z,971.99
2023-02-03T02:56:36.125Z,971.99
2023-02-03T02:57:08.136Z,972.09
2023-02-03T02:57:38.180Z,972.09
2023-02-03T02:58:10.606Z,971.99
2023-02-03T02:58:40.251Z,971.99
2023-02-03T02:59:11.336Z,971.99
2023-02-03T02:59:41.855Z,971.99
2023-02-03T03:00:14.077Z,972.09
2023-02-03T03:00:44.137Z,972.09
2023-02-03T03:01:15.173Z,971.79
2023-02-03T03:01:45.833Z,971.79
2023-02-03T03:02:16.839Z,971.69
2023-02-03T03:02:48.061Z,971.69
2023-02-03T03:03:19.315Z,971.79
2023-02-03T03:03:49.917Z,971.79
2023-02-03T03:04:21.063Z,971.79
2023-02-03T03:04:52.435Z,971.69
2023-02-03T03:05:23.343Z,971.69
2023-02-03T03:05:53.876Z,971.79
2023-02-03T03:06:25.094Z,971.79
2023-02-03T03:06:56.173Z,971.79
2023-02-03T03:07:27.216Z,971.79
2023-02-03T03:07:58.040Z,971.79
2023-02-03T03:08:28.956Z,971.79
2023-02-03T03:08:59.882Z,971.69
2023-02-03T03:09:31.235Z,971.69
2023-02-03T03:10:02.145Z,971.79
2023-02-03T03:10:33.210Z,971.79
2023-02-03T03:11:03.982Z,971.99
2023-02-03T03:11:35.246Z,971.99
2023-02-03T03:12:06.234Z,971.79
2023-02-03T03:12:37.140Z,971.79
2023-02-03T03:13:08.369Z,971.59
2023-02-03T03:13:39.244Z,971.59
2023-02-03T03:14:10.253Z,971.69
2023-02-03T03:14:40.926Z,971.69
2023-02-03T03:15:12.841Z,971.59
2023-02-03T03:15:43.021Z,971.59
2023-02-03T03:16:14.104Z,971.89
2023-02-03T03:16:45.074Z,971.89
2023-02-03T03:17:16.100Z,971.79
2023-02-03T03:17:47.083Z,971.79
2023-02-03T03:18:18.201Z,971.79
2023-02-03T03:18:49.092Z,971.79
2023-02-03T03:19:20.092Z,972.20
2023-02-03T03:19:51.420Z,971.99
2023-02-03T03:20:22.745Z,971.99
2023-02-03T03:20:53.249Z,971.89
2023-02-03T03:21:24.203Z,971.89
2023-02-03T03:21:54.844Z,972.30
2023-02-03T03:22:25.901Z,972.30
2023-02-03T03:22:57.131Z,971.89
2023-02-03T03:23:28.261Z,971.89
2023-02-03T03:23:59.276Z,971.69
2023-02-03T03:24:30.187Z,971.69
2023-02-03T03:25:01.611Z,971.89
2023-02-03T03:25:32.434Z,971.89
2023-02-03T03:26:03.185Z,972.09
2023-02-03T03:26:34.257Z,972.09
2023-02-03T03:27:05.251Z,972.09
2023-02-03T03:27:35.948Z,972.09
2023-02-03T03:28:07.429Z,972.40
2023-02-03T03:28:40.315Z,972.40
2023-02-03T03:29:08.850Z,972.09
2023-02-03T03:29:41.401Z,972.09
2023-02-03T03:30:12.966Z,972.20
2023-02-03T03:30:43.133Z,972.20
2023-02-03T03:31:12.955Z,972.20
2023-02-03T03:31:44.079Z,972.20
2023-02-03T03:32:15.091Z,972.30
2023-02-03T03:32:46.741Z,972.30
2023-02-03T03:33:17.316Z,972.30
2023-02-03T03:33:47.939Z,972.30
2023-02-03T03:34:19.736Z,972.30
2023-02-03T03:34:50.203Z,972.30
2023-02-03T03:35:21.738Z,971.99
2023-02-03T03:35:51.915Z,971.89
2023-02-03T03:36:23.082Z,971.89
2023-02-03T03:36:53.974Z,971.99
2023-02-03T03:37:25.503Z,971.99
2023-02-03T03:37:58.296Z,972.09
2023-02-03T03:38:27.583Z,972.09
2023-02-03T03:38:57.898Z,971.99
2023-02-03T03:39:29.627Z,971.99
2023-02-03T03:40:00.254Z,971.79
2023-02-03T03:40:32.215Z,971.79
2023-02-03T03:41:02.603Z,972.20
2023-02-03T03:41:33.740Z,972.20
2023-02-03T03:42:04.425Z,972.09
2023-02-03T03:42:35.605Z,972.09
2023-02-03T03:43:06.489Z,971.99
2023-02-03T03:43:37.279Z,971.99
2023-02-03T03:44:08.094Z,972.09
2023-02-03T03:44:39.021Z,972.09
2023-02-03T03:45:11.256Z,971.99
2023-02-03T03:45:41.381Z,971.99
2023-02-03T03:46:12.031Z,971.89
2023-02-03T03:46:42.967Z,971.89
2023-02-03T03:47:14.231Z,972.09
2023-02-03T03:47:45.501Z,972.09
2023-02-03T03:48:15.957Z,971.99
2023-02-03T03:48:47.333Z,971.99
2023-02-03T03:49:18.260Z,971.99
2023-02-03T03:49:49.170Z,971.99
2023-02-03T03:50:21.154Z,971.99
2023-02-03T03:50:51.316Z,972.09
2023-02-03T03:51:22.361Z,972.09
2023-02-03T03:51:53.233Z,971.89
2023-02-03T03:52:24.299Z,971.89
2023-02-03T03:52:55.220Z,971.89
2023-02-03T03:53:26.035Z,971.89
2023-02-03T03:53:57.035Z,971.79
2023-02-03T03:54:28.133Z,971.79
2023-02-03T03:54:59.291Z,971.79
2023-02-03T03:55:30.920Z,971.79
2023-02-03T03:56:01.300Z,971.89
2023-02-03T03:56:32.045Z,971.89
2023-02-03T03:57:03.364Z,972.20
2023-02-03T03:57:34.008Z,972.20
2023-02-03T03:58:05.076Z,972.09
2023-02-03T03:58:35.971Z,972.09
2023-02-03T03:59:06.993Z,972.09
2023-02-03T03:59:38.037Z,972.09
2023-02-03T04:00:12.343Z,972.20
2023-02-03T04:00:40.716Z,972.20
2023-02-03T04:01:12.537Z,972.30
2023-02-03T04:01:42.228Z,972.30
2023-02-03T04:02:14.695Z,972.09
2023-02-03T04:02:44.568Z,972.09
2023-02-03T04:03:15.204Z,972.30
2023-02-03T04:03:46.210Z,972.30
2023-02-03T04:04:17.522Z,972.20
2023-02-03T04:04:48.435Z,972.20
2023-02-03T04:05:19.895Z,972.40
2023-02-03T04:05:50.453Z,972.40
2023-02-03T04:06:21.445Z,972.30
2023-02-03T04:06:52.433Z,972.30
2023-02-03T04:07:23.781Z,972.30
2023-02-03T04:07:54.899Z,972.30
2023-02-03T04:08:25.051Z,972.30
2023-02-03T04:08:56.783Z,972.20
2023-02-03T04:09:27.726Z,972.20
2023-02-03T04:09:58.035Z,972.20
2023-02-03T04:10:29.916Z,972.20
2023-02-03T04:11:00.572Z,972.30
2023-02-03T04:11:31.250Z,972.30
2023-02-03T04:12:02.361Z,972.40
2023-02-03T04:12:33.100Z,972.40
2023-02-03T04:13:04.829Z,972.30
2023-02-03T04:13:35.899Z,972.30
2023-02-03T04:14:06.614Z,972.20
2023-02-03T04:14:37.018Z,972.20
2023-02-03T04:15:09.765Z,972.30
2023-02-03T04:15:39.733Z,972.30
2023-02-03T04:16:10.932Z,972.40
2023-02-03T04:16:41.082Z,972.40
2023-02-03T04:17:13.070Z,972.30
2023-02-03T04:17:43.170Z,972.30
2023-02-03T04:18:14.370Z,972.60
2023-02-03T04:18:44.976Z,972.60
2023-02-03T04:19:16.411Z,972.50
2023-02-03T04:19:47.292Z,972.50
2023-02-03T04:20:18.656Z,972.30
2023-02-03T04:20:49.142Z,972.30
2023-02-03T04:21:20.622Z,972.70
2023-02-03T04:21:51.341Z,972.40
2023-02-03T04:22:22.528Z,972.40
2023-02-03T04:22:53.334Z,972.81
2023-02-03T04:23:24.130Z,972.81
2023-02-03T04:23:55.324Z,972.50
2023-02-03T04:24:26.090Z,972.50
2023-02-03T04:24:57.576Z,972.50
2023-02-03T04:25:28.705Z,972.50
2023-02-03T04:25:59.301Z,972.60
2023-02-03T04:26:30.621Z,972.60
2023-02-03T04:27:01.075Z,972.60
2023-02-03T04:27:32.501Z,972.60
2023-02-03T04:28:03.230Z,972.81
2023-02-03T04:28:34.101Z,972.81
2023-02-03T04:29:05.283Z,972.50
2023-02-03T04:29:36.339Z,972.50
2023-02-03T04:30:07.992Z,972.60
2023-02-03T04:30:38.483Z,972.60
2023-02-03T04:31:09.425Z,972.60
2023-02-03T04:31:42.125Z,972.60
2023-02-03T04:32:11.174Z,972.60
2023-02-03T04:32:43.237Z,972.60
2023-02-03T04:33:13.398Z,972.70
2023-02-03T04:33:44.597Z,972.70
2023-02-03T04:34:15.497Z,972.50
2023-02-03T04:34:46.157Z,972.50
2023-02-03T04:35:18.113Z,972.40
2023-02-03T04:35:48.146Z,972.40
2023-02-03T04:36:19.468Z,972.50
2023-02-03T04:36:50.490Z,972.50
2023-02-03T04:37:21.497Z,972.60
2023-02-03T04:37:52.500Z,972.50
2023-02-03T04:38:23.403Z,972.50
2023-02-03T04:38:54.947Z,972.50
2023-02-03T04:39:25.696Z,972.50
2023-02-03T04:39:56.731Z,972.60
2023-02-03T04:40:28.181Z,972.60
2023-02-03T04:40:58.464Z,972.40
2023-02-03T04:41:29.443Z,972.40
2023-02-03T04:42:00.741Z,972.30
2023-02-03T04:42:31.346Z,972.30
2023-02-03T04:43:02.489Z,972.60
2023-02-03T04:43:33.102Z,972.60
2023-02-03T04:44:04.440Z,972.50
2023-02-03T04:44:35.366Z,972.50
2023-02-03T04:45:07.438Z,972.40
2023-02-03T04:45:37.506Z,972.40
2023-02-03T04:46:08.417Z,972.40
2023-02-03T04:46:39.395Z,972.40
2023-02-03T04:47:10.444Z,972.50
2023-02-03T04:47:41.463Z,972.50
2023-02-03T04:48:12.777Z,972.20
2023-02-03T04:48:43.690Z,972.20
2023-02-03T04:49:14.530Z,972.40
2023-02-03T04:49:45.544Z,972.40
2023-02-03T04:50:17.316Z,972.09
2023-02-03T04:50:47.818Z,972.09
2023-02-03T04:51:18.894Z,972.09
2023-02-03T04:51:49.911Z,972.09
2023-02-03T04:52:20.609Z,972.30
2023-02-03T04:52:51.736Z,972.30
2023-02-03T04:53:23.159Z,972.30
2023-02-03T04:53:53.250Z,972.09
2023-02-03T04:54:24.716Z,972.09
2023-02-03T04:54:55.218Z,972.20
2023-02-03T04:55:27.275Z,972.20
2023-02-03T04:55:57.143Z,972.30
2023-02-03T04:56:28.410Z,972.30
2023-02-03T04:56:59.234Z,972.40
2023-02-03T04:57:30.970Z,972.40
2023-02-03T04:58:02.023Z,972.30
2023-02-03T04:58:32.180Z,972.30
2023-02-03T04:59:03.935Z,972.30
2023-02-03T04:59:35.448Z,972.30
2023-02-03T05:00:06.963Z,972.30
2023-02-03T05:00:36.996Z,972.30
2023-02-03T05:01:08.001Z,972.30
2023-02-03T05:01:38.825Z,972.30
2023-02-03T05:02:09.939Z,972.30
2023-02-03T05:02:40.996Z,972.30
2023-02-03T05:03:13.226Z,972.20
2023-02-03T05:03:42.272Z,972.20
2023-02-03T05:04:14.816Z,972.20
2023-02-03T05:04:44.501Z,972.20
2023-02-03T05:05:17.052Z,972.30
2023-02-03T05:05:46.733Z,972.30
2023-02-03T05:06:17.738Z,972.30
2023-02-03T05:06:48.555Z,972.30
2023-02-03T05:07:19.725Z,972.30
2023-02-03T05:07:50.857Z,972.30
2023-02-03T05:08:21.571Z,972.30
2023-02-03T05:08:52.934Z,972.40
2023-02-03T05:09:23.611Z,972.40
2023-02-03T05:09:54.410Z,972.40
2023-02-03T05:10:26.329Z,972.40
2023-02-03T05:10:56.365Z,972.40
2023-02-03T05:11:27.656Z,972.40
2023-02-03T05:11:58.379Z,972.40
2023-02-03T05:12:29.242Z,972.40
2023-02-03T05:13:00.740Z,972.40
2023-02-03T05:13:31.261Z,972.40
2023-02-03T05:14:02.214Z,972.30
2023-02-03T05:14:33.141Z,972.30
2023-02-03T05:15:05.376Z,972.20
2023-02-03T05:15:35.454Z,972.20
2023-02-03T05:16:06.658Z,972.09
2023-02-03T05:16:37.672Z,972.09
2023-02-03T05:17:08.574Z,972.20
2023-02-03T05:17:39.718Z,972.20
2023-02-03T05:18:10.289Z,972.30
2023-02-03T05:18:41.534Z,972.30
2023-02-03T05:19:12.474Z,972.30
2023-02-03T05:19:43.636Z,972.30
2023-02-03T05:20:15.250Z,972.09
2023-02-03T05:20:45.635Z,972.09
2023-02-03T05:21:16.287Z,972.40
2023-02-03T05:21:47.690Z,972.40
2023-02-03T05:22:18.653Z,972.30
2023-02-03T05:22:49.905Z,972.30
2023-02-03T05:23:20.661Z,971.89
2023-02-03T05:23:51.444Z,971.99
2023-02-03T05:24:22.948Z,971.99
2023-02-03T05:24:53.211Z,971.99
2023-02-03T05:25:25.580Z,971.99
2023-02-03T05:25:55.294Z,971.89
2023-02-03T05:26:26.821Z,971.89
2023-02-03T05:26:57.279Z,971.79
2023-02-03T05:27:28.659Z,971.79
2023-02-03T05:27:59.688Z,971.89
2023-02-03T05:28:30.291Z,971.89
2023-02-03T05:29:01.645Z,972.20
2023-02-03T05:29:32.277Z,972.20
2023-02-03T05:30:04.925Z,972.09
2023-02-03T05:30:34.426Z,972.09
2023-02-03T05:31:05.639Z,972.20
2023-02-03T05:31:36.401Z,972.20
2023-02-03T05:32:08.084Z,972.09
2023-02-03T05:32:38.600Z,972.09
2023-02-03T05:33:09.708Z,971.99
2023-02-03T05:33:40.329Z,971.99
2023-02-03T05:34:11.275Z,971.89
2023-02-03T05:34:44.931Z,971.89
2023-02-03T05:35:13.895Z,972.30
2023-02-03T05:35:47.156Z,972.30
2023-02-03T05:36:15.741Z,972.09
2023-02-03T05:36:52.449Z,971.99
2023-02-03T05:37:17.712Z,971.99
2023-02-03T05:37:48.357Z,971.99
2023-02-03T05:38:19.759Z,972.20
2023-02-03T05:38:52.786Z,972.30
2023-02-03T05:39:21.616Z,972.30
2023-02-03T05:39:52.349Z,972.20
2023-02-03T05:40:24.298Z,972.20
2023-02-03T05:40:57.676Z,971.79
2023-02-03T05:41:25.609Z,971.79
2023-02-03T05:41:58.417Z,972.09
2023-02-03T05:42:27.376Z,972.09
2023-02-03T05:42:58.360Z,972.09
2023-02-03T05:43:30.154Z,972.09
2023-02-03T05:44:00.725Z,971.89
2023-02-03T05:44:31.888Z,971.89
2023-02-03T05:45:03.475Z,972.20
2023-02-03T05:45:34.295Z,972.20
2023-02-03T05:46:04.441Z,972.09
2023-02-03T05:46:36.148Z,972.09
2023-02-03T05:47:07.153Z,972.20
2023-02-03T05:47:38.073Z,972.20
2023-02-03T05:48:08.463Z,971.89
2023-02-03T05:48:39.664Z,971.89
2023-02-03T05:49:10.394Z,972.30
2023-02-03T05:49:42.079Z,972.30
2023-02-03T05:50:13.317Z,971.99
2023-02-03T05:50:44.043Z,971.99
2023-02-03T05:51:14.996Z,971.79
2023-02-03T05:51:46.605Z,971.79
2023-02-03T05:52:17.036Z,972.09
2023-02-03T05:52:47.774Z,972.09
2023-02-03T05:53:18.780Z,972.20
2023-02-03T05:53:50.034Z,972.20
2023-02-03T05:54:20.347Z,971.99
2023-02-03T05:54:52.500Z,972.30
2023-02-03T05:55:23.374Z,972.30
2023-02-03T05:55:53.596Z,972.20
2023-02-03T05:56:24.403Z,972.20
2023-02-03T05:56:55.975Z,972.30
2023-02-03T05:57:27.106Z,972.30
2023-02-03T05:57:57.785Z,972.30
2023-02-03T05:58:28.745Z,972.30
2023-02-03T05:59:00.257Z,972.40
2023-02-03T05:59:30.815Z,972.40
2023-02-03T06:00:03.562Z,972.50
2023-02-03T06:00:33.465Z,972.50
2023-02-03T06:01:03.936Z,972.40
2023-02-03T06:01:35.448Z,972.40
2023-02-03T06:02:06.513Z,972.30
2023-02-03T06:02:36.395Z,972.30
2023-02-03T06:03:08.146Z,972.40
2023-02-03T06:03:39.322Z,972.40
2023-02-03T06:04:09.971Z,972.50
2023-02-03T06:04:40.948Z,972.50
2023-02-03T06:05:12.331Z,972.40
2023-02-03T06:05:42.820Z,972.40
2023-02-03T06:06:23.538Z,972.30
2023-02-03T06:06:44.882Z,972.30
2023-02-03T06:07:18.134Z,972.30
2023-02-03T06:07:47.222Z,972.30
2023-02-03T06:08:18.388Z,972.40
2023-02-03T06:08:48.856Z,972.40
2023-02-03T06:09:20.615Z,972.30
2023-02-03T06:09:50.868Z,972.30
2023-02-03T06:10:22.012Z,972.60
2023-02-03T06:10:53.325Z,972.40
2023-02-03T06:11:24.077Z,972.40
2023-02-03T06:11:55.459Z,972.30
2023-02-03T06:12:27.523Z,972.30
2023-02-03T06:12:56.899Z,972.40
2023-02-03T06:13:28.281Z,972.40
2023-02-03T06:13:58.925Z,972.50
2023-02-03T06:14:29.675Z,972.50
2023-02-03T06:15:02.059Z,972.20
2023-02-03T06:15:32.411Z,972.20
2023-02-03T06:16:02.485Z,972.09
2023-02-03T06:16:34.219Z,972.09
2023-02-03T06:17:05.324Z,972.09
2023-02-03T06:17:35.651Z,972.09
2023-02-03T06:18:07.134Z,972.20
2023-02-03T06:18:38.073Z,972.20
2023-02-03T06:19:08.893Z,972.40
2023-02-03T06:19:40.179Z,972.40
2023-02-03T06:20:10.893Z,972.09
2023-02-03T06:20:42.095Z,972.09
2023-02-03T06:21:12.684Z,972.30
2023-02-03T06:21:43.716Z,972.30
2023-02-03T06:22:14.816Z,972.40
2023-02-03T06:22:45.447Z,972.40
2023-02-03T06:23:16.661Z,972.40
2023-02-03T06:23:47.850Z,972.40
2023-02-03T06:24:18.875Z,972.30
2023-02-03T06:24:50.070Z,972.30
2023-02-03T06:25:21.773Z,972.30
2023-02-03T06:25:52.284Z,972.20
2023-02-03T06:26:22.851Z,972.20
2023-02-03T06:26:53.461Z,972.30